createdAt,value
2023-06-07T00:01:44.131Z,3.70
2023-06-07T00:04:15.329Z,3.40
2023-06-07T00:06:43.864Z,3.00
2023-06-07T00:09:11.774Z,3.60
2023-06-07T00:11:39.926Z,3.30
2023-06-07T00:14:08.434Z,3.60
2023-06-07T00:16:36.896Z,3.50
2023-06-07T00:19:05.092Z,3.30
2023-06-07T00:21:33.537Z,3.10
2023-06-07T00:24:01.933Z,2.90
2023-06-07T00:26:29.864Z,3.30
2023-06-07T00:28:57.843Z,2.80
2023-06-07T00:31:25.883Z,2.90
2023-06-07T00:33:54.164Z,3.40
2023-06-07T00:36:22.147Z,3.00
2023-06-07T00:38:51.765Z,3.30
2023-06-07T00:41:20.078Z,3.30
2023-06-07T00:43:49.297Z,3.80
2023-06-07T00:46:23.095Z,3.50
2023-06-07T00:48:53.021Z,3.70
2023-06-07T00:51:21.535Z,3.50
2023-06-07T00:53:52.597Z,3.80
2023-06-07T00:56:21.620Z,4.00
2023-06-07T00:58:49.772Z,3.80
2023-06-07T01:01:19.250Z,3.90
2023-06-07T01:03:47.932Z,3.60
2023-06-07T01:06:16.042Z,3.40
2023-06-07T01:08:45.723Z,3.70
2023-06-07T01:11:16.925Z,3.40
2023-06-07T01:13:45.145Z,4.30
2023-06-07T01:16:14.742Z,3.70
2023-06-07T01:18:43.878Z,3.50
2023-06-07T01:21:14.834Z,3.60
2023-06-07T01:23:42.955Z,3.70
2023-06-07T01:26:11.934Z,4.00
2023-06-07T01:28:43.285Z,3.50
2023-06-07T01:31:12.058Z,3.10
2023-06-07T01:33:42.801Z,3.60
2023-06-07T01:36:14.751Z,3.40
2023-06-07T01:38:47.118Z,3.60
2023-06-07T01:41:17.353Z,3.30
2023-06-07T01:43:48.955Z,3.50
2023-06-07T01:46:18.548Z,3.50
2023-06-07T01:48:46.616Z,3.50
2023-06-07T01:51:14.928Z,3.40
2023-06-07T01:53:44.549Z,3.80
2023-06-07T01:56:23.628Z,3.60
2023-06-07T01:59:42.546Z,3.60
2023-06-07T02:02:34.112Z,3.80
2023-06-07T02:05:08.387Z,3.70
2023-06-07T02:07:43.214Z,3.80
2023-06-07T02:10:12.414Z,3.50
2023-06-07T02:15:11.013Z,4.00
2023-06-07T02:20:21.010Z,3.30
2023-06-07T02:22:48.947Z,3.70
2023-06-07T02:25:17.243Z,4.60
2023-06-07T02:27:45.166Z,3.60
2023-06-07T02:30:13.283Z,4.20
2023-06-07T02:32:41.712Z,3.90
2023-06-07T02:35:10.074Z,4.20
2023-06-07T02:37:38.260Z,3.70
2023-06-07T02:40:07.138Z,3.90
2023-06-07T02:42:35.225Z,3.70
2023-06-07T02:45:06.370Z,3.90
2023-06-07T02:47:34.590Z,4.10
2023-06-07T02:50:03.764Z,4.10
2023-06-07T02:52:32.487Z,4.00
2023-06-07T02:55:01.368Z,3.00
2023-06-07T03:03:58.834Z,3.70
2023-06-07T03:06:30.609Z,3.80
2023-06-07T03:09:01.150Z,3.50
2023-06-07T03:11:29.827Z,3.50
2023-06-07T03:13:57.864Z,3.50
2023-06-07T03:16:29.484Z,3.70
2023-06-07T03:19:01.128Z,3.50
2023-06-07T03:21:29.316Z,3.30
2023-06-07T03:23:59.575Z,3.20
2023-06-07T03:26:28.222Z,3.60
2023-06-07T03:28:57.688Z,3.80
2023-06-07T03:31:30.054Z,4.00
2023-06-07T03:34:02.585Z,3.90
2023-06-07T03:36:31.670Z,3.90
2023-06-07T03:39:00.397Z,3.60
2023-06-07T03:41:29.328Z,3.40
2023-06-07T03:43:59.215Z,3.60
2023-06-07T03:46:28.098Z,3.60
2023-06-07T03:48:56.377Z,3.80
2023-06-07T03:51:25.535Z,3.20
2023-06-07T03:56:22.636Z,3.70
2023-06-07T03:58:51.573Z,3.20
2023-06-07T04:01:26.580Z,3.60
2023-06-07T04:03:55.322Z,3.50
2023-06-07T04:06:25.661Z,3.80
2023-06-07T04:08:54.850Z,3.70
2023-06-07T04:11:22.975Z,3.60
2023-06-07T04:13:51.226Z,3.90
2023-06-07T04:16:19.512Z,3.20
2023-06-07T04:18:47.759Z,3.90
2023-06-07T04:21:16.314Z,3.80
2023-06-07T04:23:46.300Z,3.60
2023-06-07T04:26:23.147Z,3.90
2023-06-07T04:28:51.551Z,3.80
2023-06-07T04:31:23.804Z,3.50
2023-06-07T04:33:52.639Z,3.60
2023-06-07T04:36:20.583Z,3.70
2023-06-07T04:38:57.970Z,4.10
2023-06-07T04:41:31.953Z,4.30
2023-06-07T04:44:04.478Z,4.00
2023-06-07T04:46:40.983Z,3.60
2023-06-07T04:49:16.487Z,4.40
2023-06-07T04:51:45.112Z,3.90
2023-06-07T04:54:18.160Z,4.10
2023-06-07T04:56:50.193Z,4.30
2023-06-07T04:59:19.564Z,3.90
2023-06-07T05:01:48.593Z,4.40
2023-06-07T05:04:18.184Z,4.20
2023-06-07T05:06:56.419Z,4.00
2023-06-07T05:09:27.946Z,4.50
2023-06-07T05:11:58.306Z,3.60
2023-06-07T05:14:26.662Z,3.30
2023-06-07T05:16:54.973Z,4.10
2023-06-07T05:19:23.591Z,4.10
2023-06-07T05:21:53.035Z,3.90
2023-06-07T05:24:21.854Z,3.90
2023-06-07T05:26:50.086Z,4.00
2023-06-07T05:29:17.994Z,3.50
2023-06-07T05:31:48.092Z,3.70
2023-06-07T05:34:16.535Z,4.40
2023-06-07T05:36:45.514Z,3.90
2023-06-07T05:39:13.780Z,3.80
2023-06-07T05:41:41.802Z,3.90
2023-06-07T05:44:09.774Z,4.30
2023-06-07T05:46:38.678Z,4.10
2023-06-07T05:49:07.251Z,4.20
2023-06-07T05:51:36.342Z,3.60
2023-06-07T05:54:06.699Z,4.40
2023-06-07T05:56:34.570Z,3.90
2023-06-07T05:59:02.527Z,4.40
2023-06-07T06:01:30.775Z,4.10
2023-06-07T06:03:58.622Z,4.00
2023-06-07T06:06:26.953Z,4.00
2023-06-07T06:08:54.946Z,4.10
2023-06-07T06:11:23.581Z,4.40
2023-06-07T06:13:51.612Z,4.00
2023-06-07T06:16:19.761Z,3.80
2023-06-07T06:18:47.929Z,3.10
2023-06-07T06:21:16.042Z,3.00
2023-06-07T06:23:44.377Z,3.70
2023-06-07T06:26:12.537Z,3.40
2023-06-07T06:28:40.637Z,3.10
2023-06-07T06:31:09.229Z,3.80
2023-06-07T06:33:37.701Z,3.20
2023-06-07T06:36:05.949Z,3.40
2023-06-07T06:38:34.216Z,3.60
2023-06-07T06:41:02.700Z,3.30
2023-06-07T06:43:30.679Z,3.40
2023-06-07T06:45:59.961Z,3.70
2023-06-07T06:48:28.239Z,3.30
2023-06-07T06:50:56.647Z,3.50
2023-06-07T06:53:25.162Z,3.50
2023-06-07T06:55:53.319Z,3.60
2023-06-07T06:58:21.535Z,3.60
2023-06-07T07:00:49.638Z,3.40
2023-06-07T07:03:17.682Z,3.00
2023-06-07T07:05:45.865Z,3.40
2023-06-07T07:08:14.414Z,3.60
2023-06-07T07:10:42.533Z,3.30
2023-06-07T07:13:10.914Z,3.40
2023-06-07T07:15:38.911Z,3.50
2023-06-07T07:18:08.835Z,3.30
2023-06-07T07:20:39.378Z,3.00
2023-06-07T07:23:07.808Z,2.90
2023-06-07T07:25:36.002Z,3.30
2023-06-07T07:28:06.108Z,3.70
2023-06-07T07:30:34.473Z,3.70
2023-06-07T07:33:02.405Z,3.30
2023-06-07T07:35:30.673Z,3.30
2023-06-07T07:38:02.504Z,3.20
2023-06-07T07:40:30.964Z,3.10
2023-06-07T07:43:00.098Z,3.30
2023-06-07T07:45:28.646Z,3.40
2023-06-07T07:47:56.916Z,3.60
2023-06-07T07:50:25.045Z,3.30
2023-06-07T07:52:54.910Z,3.40
2023-06-07T07:55:24.107Z,3.30
2023-06-07T07:57:52.112Z,3.60
2023-06-07T08:00:20.757Z,3.60
2023-06-07T08:02:49.094Z,3.50
2023-06-07T08:05:17.949Z,3.20
2023-06-07T08:12:42.334Z,3.00
2023-06-07T08:15:11.956Z,3.30
2023-06-07T08:17:40.418Z,3.60
2023-06-07T08:20:09.856Z,3.00
2023-06-07T08:22:39.241Z,3.00
2023-06-07T08:25:08.428Z,3.10
2023-06-07T08:27:37.773Z,3.20
2023-06-07T08:30:08.094Z,2.80
2023-06-07T08:32:36.612Z,2.90
2023-06-07T08:35:05.181Z,2.90
2023-06-07T08:37:33.293Z,3.10
2023-06-07T08:40:01.494Z,3.30
2023-06-07T08:42:29.629Z,3.00
2023-06-07T08:44:58.025Z,3.00
2023-06-07T08:47:29.247Z,3.10
2023-06-07T08:49:58.836Z,3.10
2023-06-07T08:52:28.315Z,3.40
2023-06-07T08:55:00.291Z,2.90
2023-06-07T08:57:32.117Z,3.20
2023-06-07T09:00:01.730Z,2.70
2023-06-07T09:02:29.945Z,2.60
2023-06-07T09:04:58.685Z,2.80
2023-06-07T09:07:27.170Z,3.00
2023-06-07T09:09:55.162Z,3.10
2023-06-07T09:12:23.516Z,3.20
2023-06-07T09:14:52.502Z,3.00
2023-06-07T09:17:20.733Z,3.40
2023-06-07T09:22:24.811Z,3.10
2023-06-07T09:24:53.390Z,3.40
2023-06-07T09:30:06.991Z,3.00
2023-06-07T09:32:39.079Z,3.10
2023-06-07T09:35:19.892Z,3.50
2023-06-07T09:37:52.545Z,3.20
2023-06-07T09:40:20.968Z,3.50
2023-06-07T09:43:00.552Z,3.40
2023-06-07T09:45:30.824Z,3.70
2023-06-07T09:48:07.674Z,3.20
2023-06-07T09:50:35.973Z,3.30
2023-06-07T09:53:04.059Z,3.80
2023-06-07T09:55:32.740Z,3.30
2023-06-07T09:58:01.112Z,3.70
2023-06-07T10:00:30.147Z,3.50
2023-06-07T10:03:07.270Z,3.50
2023-06-07T10:05:36.193Z,3.80
2023-06-07T10:08:05.385Z,3.70
2023-06-07T10:10:36.831Z,3.70
2023-06-07T10:13:06.939Z,3.20
2023-06-07T10:15:36.953Z,3.50
2023-06-07T10:18:18.893Z,3.20
2023-06-07T10:21:06.562Z,3.40
2023-06-07T10:24:00.848Z,3.20
2023-06-07T10:26:48.921Z,3.00
2023-06-07T10:29:27.085Z,3.70
2023-06-07T10:32:04.074Z,3.30
2023-06-07T10:34:33.526Z,3.30
2023-06-07T10:37:03.359Z,3.70
2023-06-07T10:39:31.599Z,3.90
2023-06-07T10:42:00.224Z,3.70
2023-06-07T10:44:31.230Z,3.80
2023-06-07T10:47:24.315Z,3.40
2023-06-07T10:49:53.065Z,3.50
2023-06-07T10:52:22.698Z,3.40
2023-06-07T10:54:51.047Z,2.90
2023-06-07T10:57:45.886Z,3.10
2023-06-07T11:00:34.909Z,3.40
2023-06-07T11:03:06.180Z,3.20
2023-06-07T11:05:53.542Z,3.40
2023-06-07T11:08:25.474Z,3.40
2023-06-07T11:10:59.706Z,3.40
2023-06-07T11:13:28.355Z,3.70
2023-06-07T11:16:25.279Z,3.20
2023-06-07T11:18:58.263Z,3.20
2023-06-07T11:21:30.695Z,2.90
2023-06-07T11:24:14.619Z,2.90
2023-06-07T11:26:42.886Z,3.30
2023-06-07T11:29:11.471Z,2.80
2023-06-07T11:31:40.797Z,3.00
2023-06-07T11:34:13.567Z,3.20
2023-06-07T11:36:44.795Z,3.90
2023-06-07T11:39:18.119Z,3.50
2023-06-07T11:41:48.314Z,3.40
2023-06-07T11:44:17.013Z,3.70
2023-06-07T11:46:46.261Z,3.90
2023-06-07T11:49:14.300Z,3.90
2023-06-07T11:51:49.611Z,3.90
2023-06-07T11:54:17.799Z,3.70
2023-06-07T11:56:46.709Z,4.10
2023-06-07T12:04:13.370Z,3.30
2023-06-07T12:06:43.477Z,3.30
2023-06-07T12:09:15.603Z,3.40
2023-06-07T12:11:46.930Z,3.50
2023-06-07T12:14:32.894Z,2.90
2023-06-07T12:17:01.977Z,2.80
2023-06-07T12:19:30.122Z,3.10
2023-06-07T12:22:07.247Z,3.40
2023-06-07T12:24:39.818Z,3.80
2023-06-07T12:27:13.821Z,3.50
2023-06-07T12:29:42.572Z,3.80
2023-06-07T12:32:11.815Z,4.00
2023-06-07T12:34:44.408Z,3.40
2023-06-07T12:37:12.819Z,3.80
2023-06-07T12:39:41.256Z,3.60
2023-06-07T12:42:09.167Z,3.50
2023-06-07T12:44:37.110Z,3.60
2023-06-07T12:47:05.528Z,3.90
2023-06-07T12:49:33.898Z,3.60
2023-06-07T12:52:03.389Z,3.80
2023-06-07T12:54:31.324Z,3.80
2023-06-07T12:57:00.131Z,3.50
2023-06-07T12:59:28.243Z,3.00
2023-06-07T13:04:25.654Z,3.50
2023-06-07T13:06:53.894Z,3.10
2023-06-07T13:09:22.341Z,3.70
2023-06-07T13:11:50.606Z,3.70
2023-06-07T13:14:18.613Z,3.20
2023-06-07T13:16:46.987Z,3.60
2023-06-07T13:19:15.038Z,3.50
2023-06-07T13:21:43.703Z,3.10
2023-06-07T13:24:11.914Z,2.90
2023-06-07T13:26:40.773Z,3.00
2023-06-07T13:29:08.703Z,2.80
2023-06-07T13:31:36.776Z,2.80
2023-06-07T13:34:07.672Z,2.70
2023-06-07T13:36:35.908Z,2.70
2023-06-07T13:39:04.028Z,2.90
2023-06-07T13:41:32.252Z,2.90
2023-06-07T13:44:15.944Z,3.00
2023-06-07T13:46:46.132Z,2.40
2023-06-07T13:49:15.319Z,2.60
2023-06-07T13:51:43.716Z,2.40
2023-06-07T13:54:11.948Z,2.50
2023-06-07T13:56:40.593Z,2.50
2023-06-07T13:59:09.072Z,2.20
2023-06-07T14:01:38.883Z,2.40
2023-06-07T14:04:08.551Z,2.30
2023-06-07T14:06:40.737Z,2.50
2023-06-07T14:09:09.115Z,2.20
2023-06-07T14:11:39.788Z,2.30
2023-06-07T14:14:07.849Z,2.30
2023-06-07T14:16:36.047Z,2.20
2023-06-07T14:19:04.380Z,2.00
2023-06-07T14:21:34.185Z,1.80
2023-06-07T14:24:02.127Z,1.70
2023-06-07T14:26:30.305Z,2.30
2023-06-07T14:28:58.241Z,1.90
2023-06-07T14:31:26.398Z,1.70
2023-06-07T14:33:54.666Z,2.30
2023-06-07T14:36:23.576Z,2.30
2023-06-07T14:38:51.631Z,2.20
2023-06-07T14:41:19.624Z,2.00
2023-06-07T14:43:48.311Z,2.90
2023-06-07T14:46:17.449Z,2.30
2023-06-07T14:48:47.393Z,2.20
2023-06-07T14:51:16.629Z,2.20
2023-06-07T14:53:45.806Z,2.40
2023-06-07T14:56:14.181Z,2.30
2023-06-07T14:58:44.382Z,2.60
2023-06-07T15:01:13.548Z,2.20
2023-06-07T15:03:42.718Z,2.40
2023-06-07T15:06:11.367Z,2.50
2023-06-07T15:08:39.289Z,2.80
2023-06-07T15:11:07.344Z,2.70
2023-06-07T15:13:35.470Z,2.70
2023-06-07T15:16:03.916Z,2.40
2023-06-07T15:18:32.030Z,3.00
2023-06-07T15:20:59.954Z,2.90
2023-06-07T15:23:28.293Z,3.50
2023-06-07T15:26:01.011Z,3.30
2023-06-07T15:28:29.331Z,4.10
2023-06-07T15:30:58.115Z,3.50
2023-06-07T15:33:26.396Z,3.50
2023-06-07T15:35:54.291Z,3.30
2023-06-07T15:38:23.478Z,3.70
2023-06-07T15:40:51.844Z,3.60
2023-06-07T15:43:20.112Z,3.40
2023-06-07T15:45:48.273Z,3.20
2023-06-07T15:48:19.455Z,3.20
2023-06-07T15:50:47.810Z,3.20
2023-06-07T15:53:19.578Z,3.40
2023-06-07T15:55:48.084Z,3.30
2023-06-07T15:58:15.954Z,3.80
2023-06-07T16:00:48.380Z,3.00
2023-06-07T16:03:17.075Z,3.60
2023-06-07T16:08:14.802Z,3.20
2023-06-07T16:10:44.437Z,3.70
2023-06-07T16:13:12.638Z,3.40
2023-06-07T16:15:41.232Z,3.50
2023-06-07T16:18:09.443Z,3.50
2023-06-07T16:20:37.944Z,3.20
2023-06-07T16:23:06.075Z,3.70
2023-06-07T16:25:36.149Z,4.20
2023-06-07T16:28:04.560Z,3.80
2023-06-07T16:30:32.972Z,3.90
2023-06-07T16:33:03.252Z,3.60
2023-06-07T16:35:31.714Z,3.70
2023-06-07T16:37:59.634Z,3.50
2023-06-07T16:40:28.316Z,3.70
2023-06-07T16:42:56.451Z,3.40
2023-06-07T16:45:24.481Z,3.50
2023-06-07T16:47:52.543Z,3.30
2023-06-07T16:50:20.720Z,3.50
2023-06-07T16:52:48.859Z,3.60
2023-06-07T16:55:16.792Z,3.60
2023-06-07T16:57:45.136Z,4.20
2023-06-07T17:00:13.889Z,3.40
2023-06-07T17:02:44.248Z,3.70
2023-06-07T17:05:14.761Z,4.00
2023-06-07T17:07:43.009Z,3.50
2023-06-07T17:10:12.095Z,4.30
2023-06-07T17:12:40.136Z,4.00
2023-06-07T17:15:09.404Z,3.70
2023-06-07T17:17:38.193Z,3.80
2023-06-07T17:20:07.365Z,3.80
2023-06-07T17:22:35.415Z,3.40
2023-06-07T17:25:03.661Z,4.10
2023-06-07T17:27:32.048Z,4.10
2023-06-07T17:30:00.427Z,3.30
2023-06-07T17:32:28.873Z,3.30
2023-06-07T17:34:56.994Z,3.80
2023-06-07T17:37:24.957Z,3.40
2023-06-07T17:39:53.137Z,3.70
2023-06-07T17:42:22.357Z,3.80
2023-06-07T17:44:53.962Z,4.20
2023-06-07T17:47:23.913Z,4.20
2023-06-07T17:49:52.336Z,4.10
2023-06-07T17:52:23.549Z,4.20
2023-06-07T17:54:52.114Z,4.00
2023-06-07T17:57:20.257Z,4.10
2023-06-07T17:59:48.488Z,4.20
2023-06-07T18:02:20.985Z,4.20
2023-06-07T18:04:49.115Z,3.40
2023-06-07T18:07:17.189Z,4.40
2023-06-07T18:09:46.671Z,4.00
2023-06-07T18:12:15.776Z,4.40
2023-06-07T18:14:45.064Z,4.10
2023-06-07T18:17:16.295Z,3.40
2023-06-07T18:19:44.426Z,4.30
2023-06-07T18:22:12.675Z,4.70
2023-06-07T18:24:40.815Z,4.20
2023-06-07T18:27:09.450Z,3.80
2023-06-07T18:29:37.715Z,4.10
2023-06-07T18:32:07.258Z,4.20
2023-06-07T18:34:35.797Z,4.10
2023-06-07T18:37:05.715Z,4.20
2023-06-07T18:39:34.568Z,3.30
2023-06-07T18:42:03.111Z,3.60
2023-06-07T18:44:32.364Z,4.10
2023-06-07T18:47:01.196Z,4.20
2023-06-07T18:49:31.197Z,3.90
2023-06-07T18:52:00.531Z,3.60
2023-06-07T18:54:29.499Z,3.80
2023-06-07T18:56:58.379Z,3.80
2023-06-07T18:59:26.884Z,3.60
2023-06-07T19:01:58.210Z,3.60
2023-06-07T19:04:27.750Z,4.10
2023-06-07T19:06:56.648Z,3.40
2023-06-07T19:09:25.065Z,3.70
2023-06-07T19:11:54.536Z,3.90
2023-06-07T19:14:24.087Z,4.10
2023-06-07T19:16:52.213Z,3.90
2023-06-07T19:19:22.854Z,3.20
2023-06-07T19:21:50.809Z,3.60
2023-06-07T19:24:19.090Z,4.00
2023-06-07T19:26:47.940Z,3.60
2023-06-07T19:29:16.269Z,3.40
2023-06-07T19:31:45.838Z,4.10
2023-06-07T19:34:13.783Z,3.50
2023-06-07T19:36:41.750Z,3.50
2023-06-07T19:39:10.114Z,3.80
2023-06-07T19:41:42.202Z,3.20
2023-06-07T19:44:10.677Z,3.60
2023-06-07T19:46:39.181Z,3.40
2023-06-07T19:49:07.288Z,3.20
2023-06-07T19:51:36.516Z,3.70
2023-06-07T19:54:04.793Z,3.20
2023-06-07T19:56:32.969Z,3.80
2023-06-07T19:59:00.965Z,3.50
2023-06-07T20:01:32.134Z,4.10
2023-06-07T20:04:01.077Z,3.70
2023-06-07T20:08:57.263Z,3.20
2023-06-07T20:11:26.733Z,3.30
2023-06-07T20:13:55.838Z,3.70
2023-06-07T20:16:23.922Z,4.10
2023-06-07T20:18:51.857Z,3.30
2023-06-07T20:21:20.046Z,4.00
2023-06-07T20:23:48.105Z,4.10
2023-06-07T20:26:16.823Z,3.50
2023-06-07T20:28:44.930Z,3.90
2023-06-07T20:31:13.441Z,4.20
2023-06-07T20:33:41.723Z,4.20
2023-06-07T20:36:10.006Z,3.70
2023-06-07T20:38:38.281Z,4.30
2023-06-07T20:41:06.656Z,4.40
2023-06-07T20:43:34.663Z,3.90
2023-06-07T20:46:02.656Z,4.00
2023-06-07T20:48:31.074Z,3.70
2023-06-07T20:50:59.370Z,4.60
2023-06-07T20:53:27.523Z,4.30
2023-06-07T20:55:55.722Z,4.10
2023-06-07T20:58:24.274Z,4.30
2023-06-07T21:00:52.567Z,4.20
2023-06-07T21:03:20.607Z,3.90
2023-06-07T21:05:48.869Z,4.10
2023-06-07T21:08:16.852Z,4.50
2023-06-07T21:10:46.602Z,4.20
2023-06-07T21:13:14.740Z,4.10
2023-06-07T21:15:42.792Z,3.60
2023-06-07T21:18:11.434Z,3.90
2023-06-07T21:20:39.543Z,3.60
2023-06-07T21:23:07.595Z,4.40
2023-06-07T21:25:35.749Z,3.70
2023-06-07T21:28:03.888Z,3.80
2023-06-07T21:30:32.067Z,4.00
2023-06-07T21:33:03.538Z,4.20
2023-06-07T21:35:32.463Z,4.70
2023-06-07T21:38:00.613Z,4.10
2023-06-07T21:40:28.862Z,3.90
2023-06-07T21:42:57.664Z,3.60
2023-06-07T21:45:27.494Z,3.90
2023-06-07T21:47:55.909Z,3.20
2023-06-07T21:50:24.190Z,4.40
2023-06-07T21:52:52.521Z,3.90
2023-06-07T21:55:20.575Z,4.40
2023-06-07T21:57:48.650Z,4.00
2023-06-07T22:00:17.537Z,4.50
2023-06-07T22:02:45.992Z,4.00
2023-06-07T22:05:14.971Z,4.10
2023-06-07T22:07:43.155Z,3.80
2023-06-07T22:10:11.811Z,3.50
2023-06-07T22:12:41.917Z,3.80
2023-06-07T22:15:10.506Z,3.90
2023-06-07T22:17:40.608Z,3.70
2023-06-07T22:20:09.546Z,3.60
2023-06-07T22:22:38.081Z,3.40
2023-06-07T22:25:06.717Z,3.80
2023-06-07T22:27:34.820Z,4.10
2023-06-07T22:30:03.042Z,4.00
2023-06-07T22:32:34.102Z,3.80
2023-06-07T22:35:05.821Z,4.10
2023-06-07T22:37:34.790Z,3.90
2023-06-07T22:40:07.615Z,4.20
2023-06-07T22:42:36.884Z,3.80
2023-06-07T22:45:05.314Z,4.10
2023-06-07T22:47:34.125Z,4.10
2023-06-07T22:52:34.170Z,4.30
2023-06-07T22:55:04.531Z,4.30
2023-06-07T22:57:33.123Z,3.70
2023-06-07T23:00:02.954Z,4.40
2023-06-07T23:02:32.374Z,4.50
2023-06-07T23:07:31.075Z,4.10
2023-06-07T23:09:59.242Z,3.70
2023-06-07T23:12:27.587Z,3.90
2023-06-07T23:14:56.271Z,4.40
2023-06-07T23:17:24.550Z,4.50
2023-06-07T23:19:52.542Z,4.50
2023-06-07T23:22:20.703Z,4.30
2023-06-07T23:24:49.393Z,4.50
2023-06-07T23:27:17.573Z,4.30
2023-06-07T23:29:45.580Z,4.00
2023-06-07T23:32:14.017Z,3.90
2023-06-07T23:34:42.614Z,3.50
2023-06-07T23:37:10.660Z,3.90
2023-06-07T23:39:38.602Z,4.20
2023-06-07T23:42:06.844Z,3.80
2023-06-07T23:44:35.091Z,3.60
2023-06-07T23:47:03.365Z,4.10
2023-06-07T23:49:35.680Z,4.30
2023-06-07T23:52:05.448Z,4.50
2023-06-07T23:54:33.440Z,4.00
2023-06-07T23:57:03.022Z,3.80
2023-06-07T23:59:31.205Z,4.00
